Dauntless Aviation
Airports North America Canada
CRG2

Argus Heliport

Kelowna, CANADA

Airport Info
Suggest Updated Information for this Airport

Location

Latitude / Longitude: 49°57'41"N / 119°26'44"W
  49°57.696'N / 119°26.748'W
  49.9616 / -119.4458
Satellite photo at:
Airport distance calculator
From:
Weather Reports

METAR

CYLW
3.1nm E
CYLW 221400Z AUTO 08003KT 010V100 9SM BKN090 OVC110 07/02 A3017 RMK SLP223
CWJV
18.4nm N
CWJV 221400Z AUTO 10009KT 06/00 RMK AO1 SLP215 T00600000 53002
CWUS
25.0nm S
CWUS 221400Z AUTO 24002KT 07/01 RMK AO1 SLP233 T00720006 53005
CYYF
30.2nm S
CYYF 221400Z 00000KT 15SM BKN140 BKN220 06/03 A3018 RMK AC5CI2 VIRGA SLP226

TAF

CYLW
3.1nm E
TAF CYLW 221238Z 2213/2301 VRB03KT P6SM BKN080 RMK FCST BASED ON AUTO OBS. NXT FCST BY 221900Z
CYYF
30.2nm S
TAF CYYF 221238Z 2213/2301 VRB03KT P6SM SCT120 BKN220 FM221700 17010KT P6SM BKN100 RMK NXT FCST BY 221900Z
Safelog

 

Dauntless Aviation

© 2007-2019 Dauntless Aviation, all rights reserved
Information provided via PilotNav comes from a variety of official and unofficial data sources. As errors are possible, do not use PilotNav for primary flight planning purposes. Verify any information that you receive via PilotNav with current and canonical charts and other official documents. The material in this database is subject to database copyrights held by Dauntless Aviation and may not be copied without the express permission of Dauntless Aviation - licenses for use of part of all of this data are available for purchase; enquire via the Dauntless Aviation helpdesk. A number of mechanisms and markers exist in the database to protect against and identify infringement / copyright. Automated queries against this website are stictly prohibited, and all activity is logged and analyzed.